sensor_id;sensor_type;location;lat;lon;timestamp;P1;durP1;ratioP1;P2;durP2;ratioP2
83632;SDS011;73595;53.084;6.696;2024-02-28T00:02:28;57.53;;;23.30;;
83632;SDS011;73595;53.084;6.696;2024-02-28T00:05:48;50.78;;;23.50;;
83632;SDS011;73595;53.084;6.696;2024-02-28T00:09:24;65.55;;;24.42;;
83632;SDS011;73595;53.084;6.696;2024-02-28T00:12:10;59.10;;;24.05;;
83632;SDS011;73595;53.084;6.696;2024-02-28T00:15:01;54.88;;;25.13;;
83632;SDS011;73595;53.084;6.696;2024-02-28T00:17:51;55.45;;;23.92;;
83632;SDS011;73595;53.084;6.696;2024-02-28T00:20:37;61.25;;;25.30;;
83632;SDS011;73595;53.084;6.696;2024-02-28T00:23:29;56.40;;;25.13;;
83632;SDS011;73595;53.084;6.696;2024-02-28T00:25:59;57.58;;;25.13;;
83632;SDS011;73595;53.084;6.696;2024-02-28T00:28:24;65.07;;;26.55;;
83632;SDS011;73595;53.084;6.696;2024-02-28T00:31:06;54.85;;;24.90;;
83632;SDS011;73595;53.084;6.696;2024-02-28T00:33:34;58.58;;;25.23;;
83632;SDS011;73595;53.084;6.696;2024-02-28T00:36:12;57.47;;;24.80;;
83632;SDS011;73595;53.084;6.696;2024-02-28T00:38:50;54.38;;;23.75;;
83632;SDS011;73595;53.084;6.696;2024-02-28T00:41:22;50.00;;;23.60;;
83632;SDS011;73595;53.084;6.696;2024-02-28T00:44:02;57.83;;;24.00;;
83632;SDS011;73595;53.084;6.696;2024-02-28T00:46:51;65.35;;;24.50;;
83632;SDS011;73595;53.084;6.696;2024-02-28T00:49:45;49.67;;;22.67;;
83632;SDS011;73595;53.084;6.696;2024-02-28T00:53:00;62.22;;;24.95;;
83632;SDS011;73595;53.084;6.696;2024-02-28T00:55:52;57.08;;;24.42;;
83632;SDS011;73595;53.084;6.696;2024-02-28T00:58:45;62.80;;;25.38;;
83632;SDS011;73595;53.084;6.696;2024-02-28T01:34:54;55.78;;;23.95;;
83632;SDS011;73595;53.084;6.696;2024-02-28T01:37:20;66.80;;;24.67;;
83632;SDS011;73595;53.084;6.696;2024-02-28T01:39:47;61.10;;;25.38;;
83632;SDS011;73595;53.084;6.696;2024-02-28T01:42:19;59.58;;;25.63;;
83632;SDS011;73595;53.084;6.696;2024-02-28T01:45:03;59.75;;;25.95;;
83632;SDS011;73595;53.084;6.696;2024-02-28T01:47:44;66.88;;;26.33;;
83632;SDS011;73595;53.084;6.696;2024-02-28T01:50:44;54.92;;;24.10;;
83632;SDS011;73595;53.084;6.696;2024-02-28T01:54:05;58.13;;;25.88;;
83632;SDS011;73595;53.084;6.696;2024-02-28T01:56:37;85.78;;;28.65;;
83632;SDS011;73595;53.084;6.696;2024-02-28T01:59:36;62.03;;;26.20;;
83632;SDS011;73595;53.084;6.696;2024-02-28T02:02:27;70.88;;;27.80;;
83632;SDS011;73595;53.084;6.696;2024-02-28T02:04:57;71.25;;;26.90;;
83632;SDS011;73595;53.084;6.696;2024-02-28T02:07:30;60.75;;;27.30;;
83632;SDS011;73595;53.084;6.696;2024-02-28T02:10:02;69.72;;;26.67;;
83632;SDS011;73595;53.084;6.696;2024-02-28T02:12:47;65.25;;;26.42;;
83632;SDS011;73595;53.084;6.696;2024-02-28T02:15:32;54.55;;;25.27;;
83632;SDS011;73595;53.084;6.696;2024-02-28T02:17:57;53.47;;;25.00;;
83632;SDS011;73595;53.084;6.696;2024-02-28T02:20:23;50.35;;;23.63;;
83632;SDS011;73595;53.084;6.696;2024-02-28T02:22:51;59.28;;;25.58;;
83632;SDS011;73595;53.084;6.696;2024-02-28T02:25:18;55.60;;;23.15;;
83632;SDS011;73595;53.084;6.696;2024-02-28T02:27:43;53.53;;;24.02;;
83632;SDS011;73595;53.084;6.696;2024-02-28T02:30:09;45.95;;;22.40;;
83632;SDS011;73595;53.084;6.696;2024-02-28T02:32:35;46.15;;;23.52;;
83632;SDS011;73595;53.084;6.696;2024-02-28T02:35:00;42.05;;;21.90;;
83632;SDS011;73595;53.084;6.696;2024-02-28T02:37:25;51.53;;;23.85;;
83632;SDS011;73595;53.084;6.696;2024-02-28T02:39:51;58.63;;;23.75;;
83632;SDS011;73595;53.084;6.696;2024-02-28T02:42:17;52.60;;;24.65;;
83632;SDS011;73595;53.084;6.696;2024-02-28T02:44:42;45.05;;;23.00;;
83632;SDS011;73595;53.084;6.696;2024-02-28T02:47:08;49.85;;;22.67;;
83632;SDS011;73595;53.084;6.696;2024-02-28T02:49:33;44.90;;;22.20;;
83632;SDS011;73595;53.084;6.696;2024-02-28T02:51:59;50.42;;;23.30;;
83632;SDS011;73595;53.084;6.696;2024-02-28T02:54:24;44.72;;;22.63;;
83632;SDS011;73595;53.084;6.696;2024-02-28T02:56:50;48.45;;;23.25;;
83632;SDS011;73595;53.084;6.696;2024-02-28T02:59:15;49.28;;;22.88;;
83632;SDS011;73595;53.084;6.696;2024-02-28T03:01:41;51.47;;;23.45;;
83632;SDS011;73595;53.084;6.696;2024-02-28T03:04:06;45.88;;;22.35;;
83632;SDS011;73595;53.084;6.696;2024-02-28T03:06:31;44.88;;;22.63;;
83632;SDS011;73595;53.084;6.696;2024-02-28T03:08:57;49.20;;;23.38;;
83632;SDS011;73595;53.084;6.696;2024-02-28T03:11:23;43.70;;;22.33;;
83632;SDS011;73595;53.084;6.696;2024-02-28T03:13:48;46.08;;;23.77;;
83632;SDS011;73595;53.084;6.696;2024-02-28T03:16:14;43.00;;;22.02;;
83632;SDS011;73595;53.084;6.696;2024-02-28T03:18:39;43.63;;;22.33;;
83632;SDS011;73595;53.084;6.696;2024-02-28T03:21:05;40.92;;;20.70;;
83632;SDS011;73595;53.084;6.696;2024-02-28T03:23:31;47.40;;;22.58;;
83632;SDS011;73595;53.084;6.696;2024-02-28T03:25:57;46.85;;;23.55;;
83632;SDS011;73595;53.084;6.696;2024-02-28T03:28:22;44.17;;;22.58;;
83632;SDS011;73595;53.084;6.696;2024-02-28T03:30:48;47.60;;;24.17;;
83632;SDS011;73595;53.084;6.696;2024-02-28T03:33:13;47.78;;;23.63;;
83632;SDS011;73595;53.084;6.696;2024-02-28T03:35:39;45.25;;;22.38;;
83632;SDS011;73595;53.084;6.696;2024-02-28T03:38:04;41.03;;;21.80;;
83632;SDS011;73595;53.084;6.696;2024-02-28T03:40:29;46.55;;;23.05;;
83632;SDS011;73595;53.084;6.696;2024-02-28T03:42:55;48.67;;;24.27;;
83632;SDS011;73595;53.084;6.696;2024-02-28T03:45:20;43.65;;;23.23;;
83632;SDS011;73595;53.084;6.696;2024-02-28T03:47:46;44.05;;;22.10;;
83632;SDS011;73595;53.084;6.696;2024-02-28T03:50:11;44.92;;;23.02;;
83632;SDS011;73595;53.084;6.696;2024-02-28T03:52:37;49.92;;;24.73;;
83632;SDS011;73595;53.084;6.696;2024-02-28T03:55:02;45.30;;;22.38;;
83632;SDS011;73595;53.084;6.696;2024-02-28T03:57:30;41.55;;;22.00;;
83632;SDS011;73595;53.084;6.696;2024-02-28T03:59:56;44.20;;;23.20;;
83632;SDS011;73595;53.084;6.696;2024-02-28T04:02:21;43.75;;;22.27;;
83632;SDS011;73595;53.084;6.696;2024-02-28T04:04:47;47.85;;;22.38;;
83632;SDS011;73595;53.084;6.696;2024-02-28T04:07:12;42.80;;;22.40;;
83632;SDS011;73595;53.084;6.696;2024-02-28T04:09:38;50.58;;;23.58;;
83632;SDS011;73595;53.084;6.696;2024-02-28T04:12:04;43.40;;;23.73;;
83632;SDS011;73595;53.084;6.696;2024-02-28T04:14:29;49.42;;;24.75;;
83632;SDS011;73595;53.084;6.696;2024-02-28T04:16:55;45.90;;;22.48;;
83632;SDS011;73595;53.084;6.696;2024-02-28T04:19:20;45.42;;;22.65;;
83632;SDS011;73595;53.084;6.696;2024-02-28T04:21:46;40.10;;;21.45;;
83632;SDS011;73595;53.084;6.696;2024-02-28T04:24:11;47.88;;;22.50;;
83632;SDS011;73595;53.084;6.696;2024-02-28T04:26:37;44.15;;;22.42;;
83632;SDS011;73595;53.084;6.696;2024-02-28T04:29:02;42.75;;;22.77;;
83632;SDS011;73595;53.084;6.696;2024-02-28T04:31:32;43.28;;;22.08;;
83632;SDS011;73595;53.084;6.696;2024-02-28T04:33:58;46.15;;;22.60;;
83632;SDS011;73595;53.084;6.696;2024-02-28T04:36:23;45.97;;;22.05;;
83632;SDS011;73595;53.084;6.696;2024-02-28T04:38:49;43.50;;;21.70;;
83632;SDS011;73595;53.084;6.696;2024-02-28T04:41:14;42.63;;;22.02;;
83632;SDS011;73595;53.084;6.696;2024-02-28T04:43:40;40.30;;;21.58;;
83632;SDS011;73595;53.084;6.696;2024-02-28T04:46:06;48.35;;;23.95;;
83632;SDS011;73595;53.084;6.696;2024-02-28T04:48:31;50.80;;;24.58;;
83632;SDS011;73595;53.084;6.696;2024-02-28T04:50:56;45.90;;;23.35;;
83632;SDS011;73595;53.084;6.696;2024-02-28T04:53:22;44.45;;;22.88;;
83632;SDS011;73595;53.084;6.696;2024-02-28T04:55:47;45.58;;;23.52;;
83632;SDS011;73595;53.084;6.696;2024-02-28T04:58:13;42.33;;;22.27;;
83632;SDS011;73595;53.084;6.696;2024-02-28T05:00:39;47.40;;;24.00;;
83632;SDS011;73595;53.084;6.696;2024-02-28T05:03:04;48.72;;;23.83;;
83632;SDS011;73595;53.084;6.696;2024-02-28T05:05:35;45.55;;;23.02;;
83632;SDS011;73595;53.084;6.696;2024-02-28T05:08:01;49.53;;;24.23;;
83632;SDS011;73595;53.084;6.696;2024-02-28T05:10:26;51.50;;;23.80;;
83632;SDS011;73595;53.084;6.696;2024-02-28T05:12:51;49.28;;;23.63;;
83632;SDS011;73595;53.084;6.696;2024-02-28T05:15:17;47.75;;;24.63;;
83632;SDS011;73595;53.084;6.696;2024-02-28T05:17:42;49.75;;;22.90;;
83632;SDS011;73595;53.084;6.696;2024-02-28T05:20:08;48.05;;;23.20;;
83632;SDS011;73595;53.084;6.696;2024-02-28T05:22:34;56.70;;;25.00;;
83632;SDS011;73595;53.084;6.696;2024-02-28T05:24:59;43.17;;;22.85;;
83632;SDS011;73595;53.084;6.696;2024-02-28T05:27:24;41.97;;;22.10;;
83632;SDS011;73595;53.084;6.696;2024-02-28T05:29:50;47.15;;;22.80;;
83632;SDS011;73595;53.084;6.696;2024-02-28T05:32:15;45.03;;;22.50;;
83632;SDS011;73595;53.084;6.696;2024-02-28T05:34:42;43.63;;;22.58;;
83632;SDS011;73595;53.084;6.696;2024-02-28T05:37:07;52.45;;;24.45;;
83632;SDS011;73595;53.084;6.696;2024-02-28T05:39:33;44.17;;;23.10;;
83632;SDS011;73595;53.084;6.696;2024-02-28T05:41:58;45.70;;;23.27;;
83632;SDS011;73595;53.084;6.696;2024-02-28T05:44:24;43.00;;;22.42;;
83632;SDS011;73595;53.084;6.696;2024-02-28T05:46:52;40.90;;;22.52;;
83632;SDS011;73595;53.084;6.696;2024-02-28T05:49:17;50.75;;;23.95;;
83632;SDS011;73595;53.084;6.696;2024-02-28T05:51:43;48.63;;;24.52;;
83632;SDS011;73595;53.084;6.696;2024-02-28T05:54:09;47.67;;;23.02;;
83632;SDS011;73595;53.084;6.696;2024-02-28T05:56:35;44.00;;;23.35;;
83632;SDS011;73595;53.084;6.696;2024-02-28T05:59:00;42.80;;;23.02;;
83632;SDS011;73595;53.084;6.696;2024-02-28T06:01:26;46.83;;;24.52;;
83632;SDS011;73595;53.084;6.696;2024-02-28T06:03:51;47.10;;;23.20;;
83632;SDS011;73595;53.084;6.696;2024-02-28T06:06:17;45.70;;;24.13;;
83632;SDS011;73595;53.084;6.696;2024-02-28T06:08:43;52.47;;;24.70;;
83632;SDS011;73595;53.084;6.696;2024-02-28T06:11:09;46.35;;;22.35;;
83632;SDS011;73595;53.084;6.696;2024-02-28T06:13:35;48.55;;;24.08;;
83632;SDS011;73595;53.084;6.696;2024-02-28T06:16:01;47.47;;;23.90;;
83632;SDS011;73595;53.084;6.696;2024-02-28T06:18:26;48.20;;;23.15;;
83632;SDS011;73595;53.084;6.696;2024-02-28T06:20:52;50.08;;;23.23;;
83632;SDS011;73595;53.084;6.696;2024-02-28T06:23:19;49.58;;;24.38;;
83632;SDS011;73595;53.084;6.696;2024-02-28T06:25:45;47.25;;;23.75;;
83632;SDS011;73595;53.084;6.696;2024-02-28T06:28:10;47.72;;;24.63;;
83632;SDS011;73595;53.084;6.696;2024-02-28T06:30:36;43.35;;;22.58;;
83632;SDS011;73595;53.084;6.696;2024-02-28T06:33:01;49.75;;;22.95;;
83632;SDS011;73595;53.084;6.696;2024-02-28T06:35:27;49.88;;;24.55;;
83632;SDS011;73595;53.084;6.696;2024-02-28T06:37:53;43.20;;;23.13;;
83632;SDS011;73595;53.084;6.696;2024-02-28T06:40:19;55.53;;;26.27;;
83632;SDS011;73595;53.084;6.696;2024-02-28T06:42:45;49.78;;;24.70;;
83632;SDS011;73595;53.084;6.696;2024-02-28T06:45:10;51.10;;;25.15;;
83632;SDS011;73595;53.084;6.696;2024-02-28T06:47:36;53.47;;;25.23;;
83632;SDS011;73595;53.084;6.696;2024-02-28T06:50:05;58.22;;;26.88;;
83632;SDS011;73595;53.084;6.696;2024-02-28T06:52:31;55.45;;;27.27;;
83632;SDS011;73595;53.084;6.696;2024-02-28T06:54:57;56.00;;;25.38;;
83632;SDS011;73595;53.084;6.696;2024-02-28T06:57:23;52.40;;;26.15;;
83632;SDS011;73595;53.084;6.696;2024-02-28T06:59:48;50.15;;;25.52;;
83632;SDS011;73595;53.084;6.696;2024-02-28T07:02:14;53.38;;;25.23;;
83632;SDS011;73595;53.084;6.696;2024-02-28T07:04:41;51.13;;;26.05;;
83632;SDS011;73595;53.084;6.696;2024-02-28T07:07:07;55.13;;;25.85;;
83632;SDS011;73595;53.084;6.696;2024-02-28T07:09:33;48.53;;;24.45;;
83632;SDS011;73595;53.084;6.696;2024-02-28T07:11:59;46.38;;;24.02;;
83632;SDS011;73595;53.084;6.696;2024-02-28T07:14:25;56.15;;;25.17;;
83632;SDS011;73595;53.084;6.696;2024-02-28T07:16:51;52.72;;;24.50;;
83632;SDS011;73595;53.084;6.696;2024-02-28T07:19:17;51.75;;;24.60;;
83632;SDS011;73595;53.084;6.696;2024-02-28T07:21:43;50.60;;;25.67;;
83632;SDS011;73595;53.084;6.696;2024-02-28T07:24:09;56.47;;;25.95;;
83632;SDS011;73595;53.084;6.696;2024-02-28T07:26:35;52.45;;;24.95;;
83632;SDS011;73595;53.084;6.696;2024-02-28T07:29:01;58.10;;;27.35;;
83632;SDS011;73595;53.084;6.696;2024-02-28T07:31:27;50.63;;;24.63;;
83632;SDS011;73595;53.084;6.696;2024-02-28T07:33:54;53.17;;;23.83;;
83632;SDS011;73595;53.084;6.696;2024-02-28T07:36:19;45.60;;;24.25;;
83632;SDS011;73595;53.084;6.696;2024-02-28T07:38:45;50.15;;;24.95;;
83632;SDS011;73595;53.084;6.696;2024-02-28T07:41:11;49.58;;;24.35;;
83632;SDS011;73595;53.084;6.696;2024-02-28T07:43:37;43.28;;;24.02;;
83632;SDS011;73595;53.084;6.696;2024-02-28T07:46:12;48.80;;;24.10;;
83632;SDS011;73595;53.084;6.696;2024-02-28T07:48:37;44.60;;;23.80;;
83632;SDS011;73595;53.084;6.696;2024-02-28T07:51:06;50.00;;;23.83;;
83632;SDS011;73595;53.084;6.696;2024-02-28T07:53:33;51.00;;;23.98;;
83632;SDS011;73595;53.084;6.696;2024-02-28T07:55:59;47.13;;;24.15;;
83632;SDS011;73595;53.084;6.696;2024-02-28T07:58:25;48.35;;;24.13;;
83632;SDS011;73595;53.084;6.696;2024-02-28T08:00:50;46.92;;;23.80;;
83632;SDS011;73595;53.084;6.696;2024-02-28T08:03:21;47.72;;;23.35;;
83632;SDS011;73595;53.084;6.696;2024-02-28T08:05:47;46.80;;;23.70;;
83632;SDS011;73595;53.084;6.696;2024-02-28T08:08:13;45.72;;;23.88;;
83632;SDS011;73595;53.084;6.696;2024-02-28T08:10:39;50.20;;;25.15;;
83632;SDS011;73595;53.084;6.696;2024-02-28T08:13:06;47.63;;;23.42;;
83632;SDS011;73595;53.084;6.696;2024-02-28T08:15:33;46.72;;;23.40;;
83632;SDS011;73595;53.084;6.696;2024-02-28T08:17:59;46.28;;;23.73;;
83632;SDS011;73595;53.084;6.696;2024-02-28T08:20:24;47.30;;;24.05;;
83632;SDS011;73595;53.084;6.696;2024-02-28T08:22:50;47.25;;;23.65;;
83632;SDS011;73595;53.084;6.696;2024-02-28T08:25:17;43.72;;;23.10;;
83632;SDS011;73595;53.084;6.696;2024-02-28T08:27:43;50.58;;;24.20;;
83632;SDS011;73595;53.084;6.696;2024-02-28T08:30:08;45.42;;;23.27;;
83632;SDS011;73595;53.084;6.696;2024-02-28T08:32:34;48.22;;;23.25;;
83632;SDS011;73595;53.084;6.696;2024-02-28T08:35:00;47.63;;;23.25;;
83632;SDS011;73595;53.084;6.696;2024-02-28T08:37:26;46.75;;;23.00;;
83632;SDS011;73595;53.084;6.696;2024-02-28T08:39:55;50.45;;;25.10;;
83632;SDS011;73595;53.084;6.696;2024-02-28T08:42:26;50.72;;;24.80;;
83632;SDS011;73595;53.084;6.696;2024-02-28T08:44:51;49.72;;;25.02;;
83632;SDS011;73595;53.084;6.696;2024-02-28T08:47:17;54.63;;;25.17;;
83632;SDS011;73595;53.084;6.696;2024-02-28T08:49:44;53.75;;;25.10;;
83632;SDS011;73595;53.084;6.696;2024-02-28T08:52:10;52.17;;;25.98;;
83632;SDS011;73595;53.084;6.696;2024-02-28T08:54:36;48.95;;;25.70;;
83632;SDS011;73595;53.084;6.696;2024-02-28T08:57:07;50.03;;;24.58;;
83632;SDS011;73595;53.084;6.696;2024-02-28T08:59:32;47.17;;;24.35;;
83632;SDS011;73595;53.084;6.696;2024-02-28T09:01:57;47.88;;;25.95;;
83632;SDS011;73595;53.084;6.696;2024-02-28T09:04:23;45.38;;;24.00;;
83632;SDS011;73595;53.084;6.696;2024-02-28T09:06:49;52.60;;;26.50;;
83632;SDS011;73595;53.084;6.696;2024-02-28T09:09:18;50.03;;;25.00;;
83632;SDS011;73595;53.084;6.696;2024-02-28T09:11:46;48.78;;;24.30;;
83632;SDS011;73595;53.084;6.696;2024-02-28T09:14:11;47.65;;;25.75;;
83632;SDS011;73595;53.084;6.696;2024-02-28T09:16:37;48.67;;;25.05;;
83632;SDS011;73595;53.084;6.696;2024-02-28T09:19:03;51.25;;;25.05;;
83632;SDS011;73595;53.084;6.696;2024-02-28T09:21:29;48.22;;;25.80;;
83632;SDS011;73595;53.084;6.696;2024-02-28T09:23:55;48.78;;;26.08;;
83632;SDS011;73595;53.084;6.696;2024-02-28T09:26:20;50.50;;;25.52;;
83632;SDS011;73595;53.084;6.696;2024-02-28T09:28:45;51.33;;;26.30;;
83632;SDS011;73595;53.084;6.696;2024-02-28T09:31:11;51.83;;;26.25;;
83632;SDS011;73595;53.084;6.696;2024-02-28T09:33:37;51.88;;;27.02;;
83632;SDS011;73595;53.084;6.696;2024-02-28T09:36:04;52.13;;;26.95;;
83632;SDS011;73595;53.084;6.696;2024-02-28T09:38:30;52.55;;;25.95;;
83632;SDS011;73595;53.084;6.696;2024-02-28T09:40:57;51.17;;;25.80;;
83632;SDS011;73595;53.084;6.696;2024-02-28T09:43:30;49.90;;;26.52;;
83632;SDS011;73595;53.084;6.696;2024-02-28T09:46:03;58.28;;;27.85;;
83632;SDS011;73595;53.084;6.696;2024-02-28T09:48:31;50.97;;;25.92;;
83632;SDS011;73595;53.084;6.696;2024-02-28T09:50:57;54.63;;;26.98;;
83632;SDS011;73595;53.084;6.696;2024-02-28T09:53:24;49.72;;;26.85;;
83632;SDS011;73595;53.084;6.696;2024-02-28T09:55:50;58.42;;;28.33;;
83632;SDS011;73595;53.084;6.696;2024-02-28T09:58:17;55.15;;;26.52;;
83632;SDS011;73595;53.084;6.696;2024-02-28T10:00:44;46.28;;;25.30;;
83632;SDS011;73595;53.084;6.696;2024-02-28T10:03:11;48.55;;;25.65;;
83632;SDS011;73595;53.084;6.696;2024-02-28T10:05:39;50.72;;;26.35;;
83632;SDS011;73595;53.084;6.696;2024-02-28T10:08:05;46.78;;;25.48;;
83632;SDS011;73595;53.084;6.696;2024-02-28T10:10:44;50.60;;;25.70;;
83632;SDS011;73595;53.084;6.696;2024-02-28T10:13:17;45.55;;;24.67;;
83632;SDS011;73595;53.084;6.696;2024-02-28T10:15:44;48.22;;;25.45;;
83632;SDS011;73595;53.084;6.696;2024-02-28T10:18:11;46.83;;;24.95;;
83632;SDS011;73595;53.084;6.696;2024-02-28T10:20:36;54.25;;;26.67;;
83632;SDS011;73595;53.084;6.696;2024-02-28T10:23:04;46.78;;;24.98;;
83632;SDS011;73595;53.084;6.696;2024-02-28T10:25:30;49.63;;;26.70;;
83632;SDS011;73595;53.084;6.696;2024-02-28T10:27:59;48.63;;;25.80;;
83632;SDS011;73595;53.084;6.696;2024-02-28T10:30:25;42.92;;;24.50;;
83632;SDS011;73595;53.084;6.696;2024-02-28T10:32:51;46.97;;;25.95;;
83632;SDS011;73595;53.084;6.696;2024-02-28T10:35:18;46.08;;;25.48;;
83632;SDS011;73595;53.084;6.696;2024-02-28T10:37:46;49.95;;;25.85;;
83632;SDS011;73595;53.084;6.696;2024-02-28T10:40:15;48.35;;;25.23;;
83632;SDS011;73595;53.084;6.696;2024-02-28T10:42:42;44.05;;;24.70;;
83632;SDS011;73595;53.084;6.696;2024-02-28T10:45:11;47.72;;;26.02;;
83632;SDS011;73595;53.084;6.696;2024-02-28T10:47:40;45.90;;;26.70;;
83632;SDS011;73595;53.084;6.696;2024-02-28T10:50:06;45.92;;;25.10;;
83632;SDS011;73595;53.084;6.696;2024-02-28T10:52:37;42.50;;;24.75;;
83632;SDS011;73595;53.084;6.696;2024-02-28T10:55:08;45.08;;;25.33;;
83632;SDS011;73595;53.084;6.696;2024-02-28T10:57:34;43.35;;;24.33;;
83632;SDS011;73595;53.084;6.696;2024-02-28T11:00:01;48.10;;;25.92;;
83632;SDS011;73595;53.084;6.696;2024-02-28T11:02:29;45.85;;;24.95;;
83632;SDS011;73595;53.084;6.696;2024-02-28T11:04:56;43.05;;;24.33;;
83632;SDS011;73595;53.084;6.696;2024-02-28T11:07:23;46.97;;;26.40;;
83632;SDS011;73595;53.084;6.696;2024-02-28T11:09:53;45.38;;;24.95;;
83632;SDS011;73595;53.084;6.696;2024-02-28T11:12:25;40.83;;;23.15;;
83632;SDS011;73595;53.084;6.696;2024-02-28T11:14:59;47.92;;;25.13;;
83632;SDS011;73595;53.084;6.696;2024-02-28T11:17:26;42.22;;;24.92;;
83632;SDS011;73595;53.084;6.696;2024-02-28T11:19:54;47.80;;;27.13;;
83632;SDS011;73595;53.084;6.696;2024-02-28T11:22:19;45.88;;;25.77;;
83632;SDS011;73595;53.084;6.696;2024-02-28T11:24:46;46.17;;;26.20;;
83632;SDS011;73595;53.084;6.696;2024-02-28T11:27:12;44.20;;;24.77;;
83632;SDS011;73595;53.084;6.696;2024-02-28T11:29:41;41.90;;;23.20;;
83632;SDS011;73595;53.084;6.696;2024-02-28T11:32:07;42.70;;;25.00;;
83632;SDS011;73595;53.084;6.696;2024-02-28T11:34:33;44.33;;;25.27;;
83632;SDS011;73595;53.084;6.696;2024-02-28T11:36:59;39.95;;;24.17;;
83632;SDS011;73595;53.084;6.696;2024-02-28T11:39:24;42.58;;;24.75;;
83632;SDS011;73595;53.084;6.696;2024-02-28T11:41:51;45.78;;;25.65;;
83632;SDS011;73595;53.084;6.696;2024-02-28T11:44:18;41.83;;;24.00;;
83632;SDS011;73595;53.084;6.696;2024-02-28T11:46:45;43.40;;;25.00;;
83632;SDS011;73595;53.084;6.696;2024-02-28T11:49:12;41.58;;;24.65;;
83632;SDS011;73595;53.084;6.696;2024-02-28T11:51:39;39.78;;;24.70;;
83632;SDS011;73595;53.084;6.696;2024-02-28T11:54:05;43.45;;;25.00;;
83632;SDS011;73595;53.084;6.696;2024-02-28T11:56:32;39.78;;;24.65;;
83632;SDS011;73595;53.084;6.696;2024-02-28T11:58:58;41.92;;;24.50;;
83632;SDS011;73595;53.084;6.696;2024-02-28T12:01:36;42.30;;;25.00;;
83632;SDS011;73595;53.084;6.696;2024-02-28T12:04:03;42.08;;;25.33;;
83632;SDS011;73595;53.084;6.696;2024-02-28T12:06:30;38.47;;;24.08;;
83632;SDS011;73595;53.084;6.696;2024-02-28T12:08:56;41.00;;;24.48;;
83632;SDS011;73595;53.084;6.696;2024-02-28T12:11:21;41.88;;;24.88;;
83632;SDS011;73595;53.084;6.696;2024-02-28T12:13:52;33.85;;;22.33;;
83632;SDS011;73595;53.084;6.696;2024-02-28T12:16:18;38.25;;;22.95;;
83632;SDS011;73595;53.084;6.696;2024-02-28T12:18:47;35.65;;;22.25;;
83632;SDS011;73595;53.084;6.696;2024-02-28T12:21:13;38.90;;;23.25;;
83632;SDS011;73595;53.084;6.696;2024-02-28T12:23:38;38.13;;;23.30;;
83632;SDS011;73595;53.084;6.696;2024-02-28T12:26:05;38.72;;;23.40;;
83632;SDS011;73595;53.084;6.696;2024-02-28T12:28:30;35.58;;;21.27;;
83632;SDS011;73595;53.084;6.696;2024-02-28T12:30:57;37.20;;;23.10;;
83632;SDS011;73595;53.084;6.696;2024-02-28T12:33:24;38.33;;;22.48;;
83632;SDS011;73595;53.084;6.696;2024-02-28T12:35:49;35.75;;;22.55;;
83632;SDS011;73595;53.084;6.696;2024-02-28T12:38:17;37.83;;;22.77;;
83632;SDS011;73595;53.084;6.696;2024-02-28T12:40:43;35.28;;;22.70;;
83632;SDS011;73595;53.084;6.696;2024-02-28T12:43:08;38.15;;;23.95;;
83632;SDS011;73595;53.084;6.696;2024-02-28T12:45:33;33.28;;;22.27;;
83632;SDS011;73595;53.084;6.696;2024-02-28T12:47:59;38.03;;;23.13;;
83632;SDS011;73595;53.084;6.696;2024-02-28T12:50:26;38.53;;;22.92;;
83632;SDS011;73595;53.084;6.696;2024-02-28T12:52:51;36.10;;;22.88;;
83632;SDS011;73595;53.084;6.696;2024-02-28T12:55:18;31.38;;;21.40;;
83632;SDS011;73595;53.084;6.696;2024-02-28T12:57:46;34.03;;;21.85;;
83632;SDS011;73595;53.084;6.696;2024-02-28T13:00:13;32.60;;;21.92;;
83632;SDS011;73595;53.084;6.696;2024-02-28T13:02:39;34.20;;;22.58;;
83632;SDS011;73595;53.084;6.696;2024-02-28T13:05:04;33.60;;;22.02;;
83632;SDS011;73595;53.084;6.696;2024-02-28T13:07:30;32.40;;;22.85;;
83632;SDS011;73595;53.084;6.696;2024-02-28T13:09:56;32.17;;;21.48;;
83632;SDS011;73595;53.084;6.696;2024-02-28T13:12:21;29.95;;;21.65;;
83632;SDS011;73595;53.084;6.696;2024-02-28T13:14:47;25.60;;;20.13;;
83632;SDS011;73595;53.084;6.696;2024-02-28T13:17:14;32.83;;;20.75;;
83632;SDS011;73595;53.084;6.696;2024-02-28T13:19:40;30.38;;;21.30;;
83632;SDS011;73595;53.084;6.696;2024-02-28T13:22:06;34.08;;;21.30;;
83632;SDS011;73595;53.084;6.696;2024-02-28T13:24:31;29.30;;;21.02;;
83632;SDS011;73595;53.084;6.696;2024-02-28T13:26:57;30.55;;;21.10;;
83632;SDS011;73595;53.084;6.696;2024-02-28T13:29:22;30.10;;;21.02;;
83632;SDS011;73595;53.084;6.696;2024-02-28T13:31:48;29.60;;;21.13;;
83632;SDS011;73595;53.084;6.696;2024-02-28T13:34:13;32.30;;;22.15;;
83632;SDS011;73595;53.084;6.696;2024-02-28T13:36:38;29.63;;;21.33;;
83632;SDS011;73595;53.084;6.696;2024-02-28T13:39:07;29.95;;;20.50;;
83632;SDS011;73595;53.084;6.696;2024-02-28T13:41:34;31.83;;;21.88;;
83632;SDS011;73595;53.084;6.696;2024-02-28T13:43:59;31.27;;;21.35;;
83632;SDS011;73595;53.084;6.696;2024-02-28T13:46:24;31.55;;;21.85;;
83632;SDS011;73595;53.084;6.696;2024-02-28T13:48:50;31.65;;;21.98;;
83632;SDS011;73595;53.084;6.696;2024-02-28T13:51:15;28.83;;;20.25;;
83632;SDS011;73595;53.084;6.696;2024-02-28T13:53:40;31.50;;;22.50;;
83632;SDS011;73595;53.084;6.696;2024-02-28T13:56:06;29.58;;;21.25;;
83632;SDS011;73595;53.084;6.696;2024-02-28T13:58:32;32.60;;;22.10;;
83632;SDS011;73595;53.084;6.696;2024-02-28T14:00:57;30.73;;;22.00;;
83632;SDS011;73595;53.084;6.696;2024-02-28T14:03:22;27.35;;;20.52;;
83632;SDS011;73595;53.084;6.696;2024-02-28T14:05:50;31.63;;;22.10;;
83632;SDS011;73595;53.084;6.696;2024-02-28T14:08:15;29.75;;;20.77;;
83632;SDS011;73595;53.084;6.696;2024-02-28T14:10:41;32.78;;;22.83;;
83632;SDS011;73595;53.084;6.696;2024-02-28T14:13:07;32.55;;;22.73;;
83632;SDS011;73595;53.084;6.696;2024-02-28T14:15:32;30.77;;;21.27;;
83632;SDS011;73595;53.084;6.696;2024-02-28T14:17:58;29.45;;;21.80;;
83632;SDS011;73595;53.084;6.696;2024-02-28T14:20:24;32.47;;;23.25;;
83632;SDS011;73595;53.084;6.696;2024-02-28T14:22:49;34.20;;;22.75;;
83632;SDS011;73595;53.084;6.696;2024-02-28T14:25:18;36.15;;;22.45;;
83632;SDS011;73595;53.084;6.696;2024-02-28T14:27:46;35.63;;;23.98;;
83632;SDS011;73595;53.084;6.696;2024-02-28T14:30:12;32.38;;;22.98;;
83632;SDS011;73595;53.084;6.696;2024-02-28T14:32:42;35.97;;;23.60;;
83632;SDS011;73595;53.084;6.696;2024-02-28T14:35:13;35.05;;;24.50;;
83632;SDS011;73595;53.084;6.696;2024-02-28T14:37:46;35.55;;;23.45;;
83632;SDS011;73595;53.084;6.696;2024-02-28T14:40:11;34.17;;;24.30;;
83632;SDS011;73595;53.084;6.696;2024-02-28T14:42:39;31.48;;;22.27;;
83632;SDS011;73595;53.084;6.696;2024-02-28T14:45:08;32.42;;;23.13;;
83632;SDS011;73595;53.084;6.696;2024-02-28T14:47:36;33.60;;;23.80;;
83632;SDS011;73595;53.084;6.696;2024-02-28T14:50:03;30.45;;;23.27;;
83632;SDS011;73595;53.084;6.696;2024-02-28T14:52:28;33.88;;;22.98;;
83632;SDS011;73595;53.084;6.696;2024-02-28T14:54:54;33.53;;;22.33;;
83632;SDS011;73595;53.084;6.696;2024-02-28T14:57:19;32.85;;;23.20;;
83632;SDS011;73595;53.084;6.696;2024-02-28T14:59:45;32.70;;;23.15;;
83632;SDS011;73595;53.084;6.696;2024-02-28T15:02:11;33.60;;;21.98;;